createdAt,value
2023-05-17T00:00:22.947Z,24.55
2023-05-17T00:01:23.039Z,24.56
2023-05-17T00:02:23.063Z,24.56
2023-05-17T00:03:23.154Z,24.55
2023-05-17T00:04:23.353Z,24.54
2023-05-17T00:05:23.529Z,24.55
2023-05-17T00:06:23.350Z,24.55
2023-05-17T00:07:23.392Z,24.55
2023-05-17T00:08:23.491Z,24.54
2023-05-17T00:09:23.486Z,24.55
2023-05-17T00:10:23.554Z,24.55
2023-05-17T00:11:23.659Z,24.55
2023-05-17T00:12:23.679Z,24.52
2023-05-17T00:13:23.730Z,24.54
2023-05-17T00:14:23.803Z,24.52
2023-05-17T00:15:23.848Z,24.52
2023-05-17T00:16:23.951Z,24.52
2023-05-17T00:17:24.096Z,24.54
2023-05-17T00:18:24.076Z,24.55
2023-05-17T00:19:24.175Z,24.54
2023-05-17T00:20:24.262Z,24.55
2023-05-17T00:21:24.199Z,24.54
2023-05-17T00:22:24.315Z,24.55
2023-05-17T00:23:24.307Z,24.54
2023-05-17T00:24:24.381Z,24.52
2023-05-17T00:25:24.419Z,24.54
2023-05-17T00:26:24.542Z,24.54
2023-05-17T00:27:24.579Z,24.52
2023-05-17T00:28:24.711Z,24.52
2023-05-17T00:29:24.679Z,24.52
2023-05-17T00:30:24.767Z,24.51
2023-05-17T00:31:24.796Z,24.55
2023-05-17T00:32:24.944Z,24.52
2023-05-17T00:33:24.919Z,24.51
2023-05-17T00:34:24.991Z,24.52
2023-05-17T00:35:25.129Z,24.52
2023-05-17T00:36:25.134Z,24.49
2023-05-17T00:37:25.158Z,24.54
2023-05-17T00:38:25.229Z,24.51
2023-05-17T00:39:25.271Z,24.52
2023-05-17T00:40:25.364Z,24.52
2023-05-17T00:41:25.386Z,24.51
2023-05-17T00:42:25.483Z,24.51
2023-05-17T00:43:25.512Z,24.54
2023-05-17T00:44:25.590Z,24.52
2023-05-17T00:45:25.824Z,24.54
2023-05-17T00:46:25.690Z,24.52
2023-05-17T00:47:25.867Z,24.52
2023-05-17T00:48:26.148Z,24.49
2023-05-17T00:49:25.873Z,24.49
2023-05-17T00:50:25.927Z,24.51
2023-05-17T00:51:26.063Z,24.49
2023-05-17T00:52:26.099Z,24.51
2023-05-17T00:53:26.193Z,24.51
2023-05-17T00:54:26.168Z,24.49
2023-05-17T00:55:26.381Z,24.49
2023-05-17T00:56:26.253Z,24.47
2023-05-17T00:57:26.327Z,24.49
2023-05-17T00:58:26.451Z,24.48
2023-05-17T00:59:26.613Z,24.51
2023-05-17T01:00:26.599Z,24.49
2023-05-17T01:01:26.615Z,24.48
2023-05-17T01:02:26.699Z,24.47
2023-05-17T01:03:26.738Z,24.49
2023-05-17T01:04:26.813Z,24.49
2023-05-17T01:05:26.896Z,24.49
2023-05-17T01:06:26.912Z,24.48
2023-05-17T01:07:26.888Z,24.48
2023-05-17T01:08:26.969Z,24.47
2023-05-17T01:09:27.052Z,24.48
2023-05-17T01:10:27.078Z,24.51
2023-05-17T01:11:27.121Z,24.49
2023-05-17T01:12:27.237Z,24.48
2023-05-17T01:13:27.216Z,24.48
2023-05-17T01:14:27.287Z,24.47
2023-05-17T01:15:27.422Z,24.48
2023-05-17T01:16:27.473Z,24.47
2023-05-17T01:17:27.639Z,24.48
2023-05-17T01:18:27.629Z,24.47
2023-05-17T01:19:27.712Z,24.48
2023-05-17T01:20:27.701Z,24.48
2023-05-17T01:21:27.700Z,24.48
2023-05-17T01:22:27.814Z,24.48
2023-05-17T01:23:27.815Z,24.45
2023-05-17T01:24:27.939Z,24.45
2023-05-17T01:25:28.139Z,24.47
2023-05-17T01:26:27.977Z,24.48
2023-05-17T01:27:28.045Z,24.45
2023-05-17T01:28:28.090Z,24.45
2023-05-17T01:29:28.170Z,24.47
2023-05-17T01:30:28.200Z,24.47
2023-05-17T01:31:28.353Z,24.47
2023-05-17T01:32:28.412Z,24.45
2023-05-17T01:33:28.602Z,24.45
2023-05-17T01:34:28.422Z,24.47
2023-05-17T01:35:28.643Z,24.47
2023-05-17T01:36:28.526Z,24.43
2023-05-17T01:37:28.631Z,24.43
2023-05-17T01:38:28.646Z,24.47
2023-05-17T01:39:28.720Z,24.45
2023-05-17T01:40:28.783Z,24.47
2023-05-17T01:41:28.785Z,24.47
2023-05-17T01:42:28.854Z,24.45
2023-05-17T01:43:28.955Z,24.47
2023-05-17T01:44:29.052Z,24.47
2023-05-17T01:45:29.142Z,24.45
2023-05-17T01:46:29.079Z,24.47
2023-05-17T01:47:29.136Z,24.43
2023-05-17T01:48:29.261Z,24.42
2023-05-17T01:49:29.241Z,24.43
2023-05-17T01:50:29.323Z,24.47
2023-05-17T01:51:29.374Z,24.45
2023-05-17T01:52:29.418Z,24.45
2023-05-17T01:53:29.508Z,24.45
2023-05-17T01:54:29.523Z,24.42
2023-05-17T01:55:29.856Z,24.45
2023-05-17T01:56:29.724Z,24.42
2023-05-17T01:57:29.721Z,24.43
2023-05-17T01:58:29.752Z,24.43
2023-05-17T01:59:29.881Z,24.42
2023-05-17T02:00:29.922Z,24.43
2023-05-17T02:01:29.933Z,24.43
2023-05-17T02:02:30.080Z,24.43
2023-05-17T02:03:30.091Z,24.43
2023-05-17T02:04:30.098Z,24.43
2023-05-17T02:05:30.366Z,24.45
2023-05-17T02:06:30.109Z,24.42
2023-05-17T02:07:30.249Z,24.43
2023-05-17T02:08:30.318Z,24.42
2023-05-17T02:09:30.259Z,24.40
2023-05-17T02:10:30.300Z,24.40
2023-05-17T02:11:30.334Z,24.43
2023-05-17T02:12:30.378Z,24.42
2023-05-17T02:13:30.449Z,24.42
2023-05-17T02:14:30.421Z,24.42
2023-05-17T02:15:30.577Z,24.40
2023-05-17T02:16:30.457Z,24.42
2023-05-17T02:17:30.557Z,24.39
2023-05-17T02:18:30.654Z,24.40
2023-05-17T02:19:30.608Z,24.40
2023-05-17T02:20:30.568Z,24.40
2023-05-17T02:21:30.652Z,24.43
2023-05-17T02:22:30.701Z,24.39
2023-05-17T02:23:30.696Z,24.39
2023-05-17T02:24:30.990Z,24.39
2023-05-17T02:25:30.956Z,24.39
2023-05-17T02:26:30.835Z,24.42
2023-05-17T02:27:30.916Z,24.39
2023-05-17T02:28:30.969Z,24.42
2023-05-17T02:29:30.971Z,24.42
2023-05-17T02:30:30.973Z,24.39
2023-05-17T02:31:31.002Z,24.40
2023-05-17T02:32:31.099Z,24.42
2023-05-17T02:33:31.192Z,24.40
2023-05-17T02:34:31.120Z,24.39
2023-05-17T02:35:31.225Z,24.42
2023-05-17T02:36:31.270Z,24.39
2023-05-17T02:37:31.253Z,24.39
2023-05-17T02:38:31.296Z,24.39
2023-05-17T02:39:31.315Z,24.38
2023-05-17T02:40:31.324Z,24.39
2023-05-17T02:41:31.383Z,24.39
2023-05-17T02:42:31.458Z,24.38
2023-05-17T02:43:31.439Z,24.39
2023-05-17T02:44:31.515Z,24.38
2023-05-17T02:45:31.764Z,24.36
2023-05-17T02:46:31.574Z,24.40
2023-05-17T02:47:31.711Z,24.39
2023-05-17T02:48:31.657Z,24.36
2023-05-17T02:49:31.683Z,24.38
2023-05-17T02:50:31.708Z,24.39
2023-05-17T02:51:31.784Z,24.36
2023-05-17T02:52:31.758Z,24.38
2023-05-17T02:53:31.789Z,24.36
2023-05-17T02:54:31.838Z,24.40
2023-05-17T02:55:31.807Z,24.38
2023-05-17T02:56:31.878Z,24.38
2023-05-17T02:57:31.991Z,24.38
2023-05-17T02:58:31.874Z,24.38
2023-05-17T02:59:31.867Z,24.35
2023-05-17T03:00:32.049Z,24.38
2023-05-17T03:01:31.961Z,24.36
2023-05-17T03:02:32.067Z,24.34
2023-05-17T03:03:32.104Z,24.38
2023-05-17T03:04:32.113Z,24.38
2023-05-17T03:05:32.090Z,24.36
2023-05-17T03:06:32.059Z,24.34
2023-05-17T03:07:32.102Z,24.34
2023-05-17T03:08:32.105Z,24.36
2023-05-17T03:09:32.116Z,24.36
2023-05-17T03:10:32.166Z,24.36
2023-05-17T03:11:32.136Z,24.36
2023-05-17T03:12:32.181Z,24.34
2023-05-17T03:13:32.185Z,24.35
2023-05-17T03:14:32.210Z,24.36
2023-05-17T03:15:32.213Z,24.35
2023-05-17T03:16:32.460Z,24.38
2023-05-17T03:17:32.406Z,24.36
2023-05-17T03:18:33.288Z,24.36
2023-05-17T03:19:32.318Z,24.34
2023-05-17T03:20:32.279Z,24.34
2023-05-17T03:21:32.336Z,24.34
2023-05-17T03:22:32.335Z,24.34
2023-05-17T03:23:32.290Z,24.35
2023-05-17T03:24:32.345Z,24.35
2023-05-17T03:25:32.361Z,24.34
2023-05-17T03:26:32.438Z,24.35
2023-05-17T03:27:32.350Z,24.34
2023-05-17T03:28:32.307Z,24.35
2023-05-17T03:29:32.369Z,24.32
2023-05-17T03:30:32.349Z,24.35
2023-05-17T03:31:32.342Z,24.34
2023-05-17T03:32:32.445Z,24.34
2023-05-17T03:33:32.437Z,24.35
2023-05-17T03:34:32.326Z,24.35
2023-05-17T03:35:32.418Z,24.36
2023-05-17T03:36:32.409Z,24.32
2023-05-17T03:37:32.323Z,24.34
2023-05-17T03:38:32.355Z,24.34
2023-05-17T03:39:32.351Z,24.32
2023-05-17T03:40:32.349Z,24.34
2023-05-17T03:41:32.363Z,24.35
2023-05-17T03:42:32.338Z,24.36
2023-05-17T03:43:32.390Z,24.34
2023-05-17T03:44:32.361Z,24.34
2023-05-17T03:45:32.335Z,24.32
2023-05-17T03:46:32.353Z,24.34
2023-05-17T03:47:32.379Z,24.32
2023-05-17T03:48:34.501Z,24.34
2023-05-17T03:49:32.327Z,24.32
2023-05-17T03:50:32.326Z,24.35
2023-05-17T03:51:32.338Z,24.34
2023-05-17T03:52:32.319Z,24.34
2023-05-17T03:53:32.337Z,24.31
2023-05-17T03:54:32.360Z,24.32
2023-05-17T03:55:32.292Z,24.32
2023-05-17T03:56:32.309Z,24.29
2023-05-17T03:57:32.289Z,24.31
2023-05-17T03:58:32.290Z,24.34
2023-05-17T03:59:32.330Z,24.32
2023-05-17T04:00:32.259Z,24.32
2023-05-17T04:01:32.268Z,24.32
2023-05-17T04:02:32.343Z,24.34
2023-05-17T04:03:32.290Z,24.29
2023-05-17T04:04:32.467Z,24.31
2023-05-17T04:05:32.328Z,24.32
2023-05-17T04:06:32.231Z,24.31
2023-05-17T04:07:32.228Z,24.31
2023-05-17T04:08:32.217Z,24.29
2023-05-17T04:09:32.213Z,24.32
2023-05-17T04:10:32.189Z,24.29
2023-05-17T04:11:32.157Z,24.31
2023-05-17T04:12:32.217Z,24.31
2023-05-17T04:13:32.163Z,24.29
2023-05-17T04:14:32.172Z,24.29
2023-05-17T04:15:32.157Z,24.29
2023-05-17T04:16:32.174Z,24.29
2023-05-17T04:17:32.229Z,24.29
2023-05-17T04:18:32.219Z,24.31
2023-05-17T04:19:32.308Z,24.32
2023-05-17T04:20:32.238Z,24.31
2023-05-17T04:21:32.104Z,24.31
2023-05-17T04:22:32.177Z,24.29
2023-05-17T04:23:32.143Z,24.29
2023-05-17T04:24:32.231Z,24.31
2023-05-17T04:25:32.163Z,24.29
2023-05-17T04:26:32.057Z,24.29
2023-05-17T04:27:32.201Z,24.28
2023-05-17T04:28:32.093Z,24.29
2023-05-17T04:29:32.061Z,24.29
2023-05-17T04:30:32.077Z,24.29
2023-05-17T04:31:32.013Z,24.28
2023-05-17T04:32:32.051Z,24.28
2023-05-17T04:33:32.044Z,24.28
2023-05-17T04:34:32.032Z,24.28
2023-05-17T04:35:32.115Z,24.27
2023-05-17T04:36:32.040Z,24.29
2023-05-17T04:37:32.026Z,24.28
2023-05-17T04:38:32.009Z,24.28
2023-05-17T04:39:31.994Z,24.28
2023-05-17T04:40:31.996Z,24.28
2023-05-17T04:41:31.956Z,24.27
2023-05-17T04:42:31.938Z,24.27
2023-05-17T04:43:31.931Z,24.27
2023-05-17T04:44:31.913Z,24.27
2023-05-17T04:45:32.112Z,24.28
2023-05-17T04:46:31.914Z,24.27
2023-05-17T04:47:32.026Z,24.27
2023-05-17T04:48:32.011Z,24.28
2023-05-17T04:49:31.924Z,24.28
2023-05-17T04:50:31.890Z,24.28
2023-05-17T04:51:31.910Z,24.28
2023-05-17T04:52:31.908Z,24.28
2023-05-17T04:53:31.894Z,24.25
2023-05-17T04:54:31.864Z,24.25
2023-05-17T04:55:31.862Z,24.28
2023-05-17T04:56:31.835Z,24.28
2023-05-17T04:57:31.843Z,24.28
2023-05-17T04:58:31.813Z,24.28
2023-05-17T04:59:31.845Z,24.28
2023-05-17T05:00:31.910Z,24.27
2023-05-17T05:01:31.825Z,24.27
2023-05-17T05:02:31.911Z,24.25
2023-05-17T05:03:31.849Z,24.27
2023-05-17T05:04:31.818Z,24.25
2023-05-17T05:05:31.794Z,24.27
2023-05-17T05:06:31.758Z,24.25
2023-05-17T05:07:31.775Z,24.27
2023-05-17T05:08:31.799Z,24.25
2023-05-17T05:09:31.808Z,24.28
2023-05-17T05:10:31.747Z,24.28
2023-05-17T05:11:31.755Z,24.25
2023-05-17T05:12:31.720Z,24.28
2023-05-17T05:13:31.775Z,24.25
2023-05-17T05:14:31.694Z,24.27
2023-05-17T05:15:31.715Z,24.28
2023-05-17T05:16:32.628Z,24.19
2023-05-17T05:18:51.139Z,24.17
2023-05-17T05:19:50.933Z,24.18
2023-05-17T05:20:50.827Z,24.21
2023-05-17T05:21:50.848Z,24.21
2023-05-17T05:22:50.782Z,24.24
2023-05-17T05:23:50.977Z,24.24
2023-05-17T05:24:50.827Z,24.25
2023-05-17T05:25:50.790Z,24.28
2023-05-17T05:26:50.940Z,24.25
2023-05-17T05:27:52.068Z,24.27
2023-05-17T05:28:50.958Z,24.27
2023-05-17T05:29:51.363Z,24.29
2023-05-17T05:32:13.997Z,24.28
2023-05-17T05:33:17.252Z,24.28
2023-05-17T05:34:10.959Z,24.28
2023-05-17T05:35:10.478Z,24.31
2023-05-17T05:36:10.380Z,24.31
2023-05-17T05:37:09.895Z,24.36
2023-05-17T05:38:12.575Z,24.35
2023-05-17T05:39:11.934Z,24.38
2023-05-17T05:40:11.324Z,24.39
2023-05-17T05:46:32.978Z,24.56
2023-05-17T05:47:35.058Z,24.58
2023-05-17T05:48:34.969Z,24.60
2023-05-17T05:49:33.480Z,24.60
2023-05-17T05:50:34.377Z,24.66
2023-05-17T05:51:32.031Z,24.66
2023-05-17T05:52:32.118Z,24.69
2023-05-17T05:53:32.084Z,24.70
2023-05-17T05:54:32.126Z,24.70
2023-05-17T05:55:33.031Z,24.72
2023-05-17T05:56:31.927Z,24.75
2023-05-17T05:57:32.066Z,24.78
2023-05-17T05:58:33.727Z,24.79
2023-05-17T05:59:31.988Z,24.80
2023-05-17T06:00:32.117Z,24.80
2023-05-17T06:01:31.924Z,24.82
2023-05-17T06:02:32.011Z,24.82
2023-05-17T06:03:32.069Z,24.86
2023-05-17T06:04:41.214Z,24.87
2023-05-17T06:05:32.996Z,24.91
2023-05-17T06:06:31.966Z,24.91
2023-05-17T06:07:31.869Z,24.93
2023-05-17T06:08:33.312Z,24.96
2023-05-17T06:09:31.851Z,24.99
2023-05-17T06:10:32.054Z,24.99
2023-05-17T06:11:31.822Z,25.00
2023-05-17T06:12:31.992Z,25.02
2023-05-17T06:13:31.852Z,25.05
2023-05-17T06:14:31.844Z,25.06
2023-05-17T06:15:31.817Z,25.07
2023-05-17T06:16:31.787Z,25.10
2023-05-17T06:17:31.780Z,25.09
2023-05-17T06:18:32.195Z,25.10
2023-05-17T06:19:44.539Z,25.10
2023-05-17T06:20:32.260Z,25.13
2023-05-17T06:21:32.161Z,25.16
2023-05-17T06:23:51.462Z,25.09
2023-05-17T06:24:51.607Z,25.07
2023-05-17T06:25:52.114Z,25.09
2023-05-17T06:26:51.800Z,25.10
2023-05-17T06:27:52.077Z,25.09
2023-05-17T06:28:50.805Z,25.10
2023-05-17T06:29:56.553Z,25.11
2023-05-17T06:32:11.596Z,25.14
2023-05-17T06:33:12.367Z,25.18
2023-05-17T06:34:11.094Z,25.21
2023-05-17T06:35:11.051Z,25.21
2023-05-17T06:36:10.096Z,25.24
2023-05-17T06:37:10.874Z,25.26
2023-05-17T06:38:10.093Z,25.28
2023-05-17T06:39:10.166Z,25.28
2023-05-17T06:40:16.770Z,25.28
2023-05-17T06:41:10.891Z,25.30
2023-05-17T06:42:09.920Z,25.33
2023-05-17T06:43:10.520Z,25.33
2023-05-17T06:44:09.957Z,25.33
2023-05-17T06:45:10.052Z,25.31
2023-05-17T06:46:09.769Z,25.31
2023-05-17T06:47:09.776Z,25.31
2023-05-17T06:48:09.915Z,25.30
2023-05-17T06:49:09.812Z,25.34
2023-05-17T06:50:09.785Z,25.31
2023-05-17T06:51:09.781Z,25.27
2023-05-17T06:52:09.895Z,25.30
2023-05-17T06:53:09.768Z,25.27
2023-05-17T06:54:09.697Z,25.27
2023-05-17T06:55:09.724Z,25.27
2023-05-17T06:56:09.711Z,25.27
2023-05-17T06:57:09.791Z,25.26
2023-05-17T06:58:09.693Z,25.26
2023-05-17T06:59:09.806Z,25.21
2023-05-17T07:00:10.602Z,25.20
2023-05-17T07:01:09.703Z,25.21
2023-05-17T07:02:10.312Z,25.21
2023-05-17T07:03:10.424Z,25.18
2023-05-17T07:04:09.781Z,25.20
2023-05-17T07:05:10.246Z,25.18
2023-05-17T07:06:09.780Z,25.18
2023-05-17T07:07:09.834Z,25.16
2023-05-17T07:08:11.009Z,25.17
2023-05-17T07:09:09.965Z,25.14
2023-05-17T07:10:10.158Z,25.14
2023-05-17T07:11:10.214Z,25.13
2023-05-17T07:12:23.877Z,25.14
2023-05-17T07:14:30.402Z,25.06
2023-05-17T07:15:29.814Z,25.09
2023-05-17T07:16:30.336Z,25.09
2023-05-17T07:17:29.348Z,25.09
2023-05-17T07:18:30.922Z,25.09
2023-05-17T07:19:29.660Z,25.07
2023-05-17T07:20:28.697Z,25.09
2023-05-17T07:24:17.537Z,25.07
2023-05-17T07:25:13.857Z,25.06
2023-05-17T07:26:13.210Z,25.10
2023-05-17T07:27:14.521Z,25.11
2023-05-17T07:28:14.292Z,25.11
2023-05-17T07:29:13.226Z,25.16
2023-05-17T07:30:13.228Z,25.16
2023-05-17T07:31:13.302Z,25.17
2023-05-17T07:32:13.222Z,25.20
2023-05-17T07:33:13.657Z,25.20
2023-05-17T07:34:14.207Z,25.20
2023-05-17T07:35:13.238Z,25.18
2023-05-17T07:36:13.639Z,25.21
2023-05-17T07:37:14.247Z,25.20
2023-05-17T07:38:13.551Z,25.18
2023-05-17T07:39:13.268Z,25.18
2023-05-17T07:40:13.194Z,25.18
2023-05-17T07:41:13.278Z,25.18
2023-05-17T07:42:13.190Z,25.17
2023-05-17T07:43:13.197Z,25.17
2023-05-17T07:44:13.320Z,25.18
2023-05-17T07:45:13.233Z,25.20
2023-05-17T07:46:13.247Z,25.14
2023-05-17T07:47:13.386Z,25.14
2023-05-17T07:48:13.655Z,25.14
2023-05-17T07:49:14.544Z,25.13
2023-05-17T07:50:13.302Z,25.11
2023-05-17T07:51:15.128Z,25.10
2023-05-17T07:52:18.473Z,25.10
2023-05-17T07:53:16.986Z,25.14
2023-05-17T07:54:13.630Z,25.11
2023-05-17T07:56:32.862Z,25.11
2023-05-17T07:57:33.156Z,25.16
2023-05-17T07:58:34.680Z,25.16
2023-05-17T07:59:32.324Z,25.18
2023-05-17T08:00:32.270Z,25.23
2023-05-17T08:01:32.362Z,25.24
2023-05-17T08:02:32.420Z,25.24
2023-05-17T08:03:32.605Z,25.26
2023-05-17T08:04:32.412Z,25.31
2023-05-17T08:05:32.490Z,25.30
2023-05-17T08:06:32.288Z,25.31
2023-05-17T08:07:32.350Z,25.36
2023-05-17T08:08:32.738Z,25.37
2023-05-17T08:09:32.275Z,25.37
2023-05-17T08:11:52.503Z,25.37
2023-05-17T08:12:51.425Z,25.40
2023-05-17T08:13:51.787Z,25.44
2023-05-17T08:14:52.399Z,25.45
2023-05-17T08:15:55.999Z,25.45
2023-05-17T08:16:52.262Z,25.47
2023-05-17T08:17:51.513Z,25.48
2023-05-17T08:18:51.471Z,25.49
2023-05-17T08:19:51.379Z,25.48
2023-05-17T08:20:51.769Z,25.52
2023-05-17T08:21:51.513Z,25.54
2023-05-17T08:22:52.521Z,25.54
2023-05-17T08:23:51.926Z,25.55
2023-05-17T08:24:52.152Z,25.57
2023-05-17T08:25:52.065Z,25.57
2023-05-17T08:26:52.008Z,25.60
2023-05-17T08:27:53.420Z,25.60
2023-05-17T08:28:53.931Z,25.60
2023-05-17T08:29:52.019Z,25.61
2023-05-17T08:30:51.894Z,25.61
2023-05-17T08:31:51.554Z,25.64
2023-05-17T08:32:52.627Z,25.64
2023-05-17T08:33:54.002Z,25.62
2023-05-17T08:34:53.655Z,25.65
2023-05-17T08:35:51.790Z,25.68
2023-05-17T08:36:52.581Z,25.65
2023-05-17T08:37:54.973Z,25.65
2023-05-17T08:41:33.174Z,25.65
2023-05-17T08:42:33.631Z,25.68
2023-05-17T08:44:52.207Z,25.68
2023-05-17T08:53:26.806Z,25.68
2023-05-17T08:54:28.250Z,25.72
2023-05-17T08:55:26.584Z,25.74
2023-05-17T08:57:44.841Z,25.72
2023-05-17T08:58:56.202Z,25.74
2023-05-17T08:59:47.824Z,25.72
2023-05-17T09:02:04.431Z,25.72
2023-05-17T09:04:23.558Z,25.72
2023-05-17T09:05:22.517Z,25.76
2023-05-17T09:06:23.658Z,25.78
2023-05-17T09:07:21.747Z,25.78
2023-05-17T09:08:24.605Z,25.75
2023-05-17T09:12:05.319Z,25.74
2023-05-17T09:14:22.683Z,25.76
2023-05-17T09:15:22.011Z,25.79
2023-05-17T09:16:19.191Z,25.84
2023-05-17T09:17:19.121Z,25.84
2023-05-17T09:18:19.608Z,25.82
2023-05-17T09:19:19.135Z,25.86
2023-05-17T09:20:19.050Z,25.88
2023-05-17T09:21:18.957Z,25.88
2023-05-17T09:22:18.945Z,25.88
2023-05-17T09:23:21.193Z,25.89
2023-05-17T09:24:23.355Z,25.89
2023-05-17T09:26:41.820Z,25.85
2023-05-17T09:27:39.063Z,25.85
2023-05-17T09:29:59.524Z,25.82
2023-05-17T09:30:57.995Z,25.84
2023-05-17T09:31:58.618Z,25.85
2023-05-17T09:32:58.137Z,25.85
2023-05-17T09:33:57.320Z,25.85
2023-05-17T09:34:56.967Z,25.86
2023-05-17T09:35:56.884Z,25.89
2023-05-17T09:36:57.074Z,25.88
2023-05-17T09:37:56.819Z,25.86
2023-05-17T09:38:56.906Z,25.82
2023-05-17T09:39:56.867Z,25.81
2023-05-17T09:40:56.924Z,25.84
2023-05-17T09:41:56.841Z,25.82
2023-05-17T09:42:56.936Z,25.81
2023-05-17T09:43:57.208Z,25.79
2023-05-17T09:46:16.465Z,25.76
2023-05-17T09:47:31.964Z,25.74
2023-05-17T09:48:35.776Z,25.69
2023-05-17T09:49:35.315Z,25.71
2023-05-17T09:50:35.449Z,25.71
2023-05-17T09:51:35.374Z,25.71
2023-05-17T09:52:35.219Z,25.68
2023-05-17T09:53:35.328Z,25.69
2023-05-17T09:55:54.223Z,25.62
2023-05-17T09:56:54.246Z,25.65
2023-05-17T09:57:54.415Z,25.61
2023-05-17T09:58:54.228Z,25.64
2023-05-17T09:59:53.919Z,25.61
2023-05-17T10:00:53.939Z,25.60
2023-05-17T10:01:53.874Z,25.62
2023-05-17T10:02:53.866Z,25.60
2023-05-17T10:03:53.853Z,25.58
2023-05-17T10:04:53.855Z,25.61
2023-05-17T10:05:53.818Z,25.58
2023-05-17T10:06:54.075Z,25.58
2023-05-17T10:07:53.767Z,25.60
2023-05-17T10:08:53.874Z,25.55
2023-05-17T10:09:53.950Z,25.57
2023-05-17T10:10:53.784Z,25.54
2023-05-17T10:11:53.891Z,25.57
2023-05-17T10:12:53.867Z,25.55
2023-05-17T10:13:53.900Z,25.55
2023-05-17T10:14:53.928Z,25.54
2023-05-17T10:15:53.927Z,25.54
2023-05-17T10:16:53.923Z,25.52
2023-05-17T10:17:53.949Z,25.52
2023-05-17T10:18:54.194Z,25.52
2023-05-17T10:19:54.104Z,25.54
2023-05-17T10:20:55.356Z,25.54
2023-05-17T10:21:54.009Z,25.51
2023-05-17T10:22:55.829Z,25.51
2023-05-17T10:23:54.155Z,25.49
2023-05-17T10:24:54.188Z,25.51
2023-05-17T10:25:54.126Z,25.48
2023-05-17T10:26:54.074Z,25.48
2023-05-17T10:27:54.100Z,25.48
2023-05-17T10:28:54.104Z,25.49
2023-05-17T10:29:54.181Z,25.48
2023-05-17T10:30:54.074Z,25.47
2023-05-17T10:31:54.035Z,25.48
2023-05-17T10:32:54.107Z,25.48
2023-05-17T10:33:54.158Z,25.47
2023-05-17T10:35:02.050Z,25.47
2023-05-17T10:35:55.329Z,25.47
2023-05-17T10:36:54.104Z,25.49
2023-05-17T10:37:54.233Z,25.45
2023-05-17T10:38:53.996Z,25.44
2023-05-17T10:39:54.609Z,25.47
2023-05-17T10:40:54.104Z,25.44
2023-05-17T10:42:03.325Z,25.44
2023-05-17T10:42:55.147Z,25.45
2023-05-17T10:43:53.958Z,25.45
2023-05-17T10:44:53.888Z,25.44
2023-05-17T10:45:53.928Z,25.42
2023-05-17T10:46:53.869Z,25.42
2023-05-17T10:47:54.010Z,25.42
2023-05-17T10:48:53.989Z,25.41
2023-05-17T10:49:53.996Z,25.41
2023-05-17T10:51:00.952Z,25.42
2023-05-17T10:51:56.753Z,25.38
2023-05-17T10:52:53.845Z,25.38
2023-05-17T10:53:54.099Z,25.41
2023-05-17T10:54:55.099Z,25.40
2023-05-17T10:55:53.814Z,25.40
2023-05-17T10:56:53.955Z,25.41
2023-05-17T10:57:53.934Z,25.40
2023-05-17T10:58:53.981Z,25.40
2023-05-17T10:59:53.783Z,25.40
2023-05-17T11:00:55.881Z,25.36
2023-05-17T11:01:53.824Z,25.37
2023-05-17T11:02:53.850Z,25.37
2023-05-17T11:03:53.793Z,25.37
2023-05-17T11:04:53.884Z,25.36
2023-05-17T11:05:54.254Z,25.38
2023-05-17T11:06:53.938Z,25.37
2023-05-17T11:07:55.951Z,25.37
2023-05-17T11:08:55.686Z,25.34
2023-05-17T11:09:54.293Z,25.37
2023-05-17T11:10:54.937Z,25.34
2023-05-17T11:11:54.044Z,25.33
2023-05-17T11:12:55.104Z,25.36
2023-05-17T11:13:54.070Z,25.34
2023-05-17T11:14:54.247Z,25.34
2023-05-17T11:15:54.090Z,25.36
2023-05-17T11:16:55.065Z,25.30
2023-05-17T11:17:54.548Z,25.31
2023-05-17T11:18:54.803Z,25.33
2023-05-17T11:19:54.262Z,25.30
2023-05-17T11:20:54.390Z,25.34
2023-05-17T11:21:54.107Z,25.31
2023-05-17T11:22:54.099Z,25.33
2023-05-17T11:23:54.155Z,25.30
2023-05-17T11:24:54.093Z,25.30
2023-05-17T11:25:54.902Z,25.31
2023-05-17T11:26:54.052Z,25.31
2023-05-17T11:27:54.154Z,25.31
2023-05-17T11:28:54.091Z,25.30
2023-05-17T11:29:54.088Z,25.30
2023-05-17T11:30:54.323Z,25.30
2023-05-17T11:31:54.076Z,25.30
2023-05-17T11:32:54.121Z,25.28
2023-05-17T11:33:54.104Z,25.30
2023-05-17T11:34:54.049Z,25.28
2023-05-17T11:35:54.055Z,25.27
2023-05-17T11:36:54.034Z,25.27
2023-05-17T11:37:54.078Z,25.27
2023-05-17T11:39:07.418Z,25.28
2023-05-17T11:39:56.557Z,25.28
2023-05-17T11:40:54.273Z,25.27
2023-05-17T11:41:54.191Z,25.27
2023-05-17T11:42:54.344Z,25.28
2023-05-17T11:45:13.589Z,25.23
2023-05-17T11:46:13.648Z,25.21
2023-05-17T11:47:28.793Z,25.23
2023-05-17T11:48:13.911Z,25.21
2023-05-17T11:49:20.321Z,25.24
2023-05-17T11:50:14.375Z,25.23
2023-05-17T11:52:32.858Z,25.20
2023-05-17T11:53:32.994Z,25.20
2023-05-17T11:54:33.549Z,25.21
2023-05-17T11:55:32.640Z,25.21
2023-05-17T11:57:51.561Z,25.16
2023-05-17T11:58:51.539Z,25.17
2023-05-17T11:59:51.401Z,25.17
2023-05-17T12:00:51.391Z,25.16
2023-05-17T12:01:51.325Z,25.17
2023-05-17T12:02:51.379Z,25.18
2023-05-17T12:03:51.580Z,25.18
2023-05-17T12:04:51.385Z,25.16
2023-05-17T12:05:51.382Z,25.18
2023-05-17T12:06:51.382Z,25.17
2023-05-17T12:07:51.399Z,25.17
2023-05-17T12:08:51.313Z,25.17
2023-05-17T12:09:51.284Z,25.17
2023-05-17T12:10:51.264Z,25.17
2023-05-17T12:11:51.290Z,25.17
2023-05-17T12:12:51.331Z,25.16
2023-05-17T12:13:51.242Z,25.18
2023-05-17T12:14:51.309Z,25.16
2023-05-17T12:15:51.290Z,25.16
2023-05-17T12:18:37.282Z,25.11
2023-05-17T12:19:37.492Z,25.13
2023-05-17T12:20:36.739Z,25.14
2023-05-17T12:21:36.767Z,25.11
2023-05-17T12:22:36.597Z,25.14
2023-05-17T12:24:55.996Z,25.10
2023-05-17T12:25:55.889Z,25.09
2023-05-17T12:26:55.783Z,25.11
2023-05-17T12:27:55.850Z,25.11
2023-05-17T12:30:14.858Z,25.10
2023-05-17T12:31:29.590Z,25.10
2023-05-17T12:32:15.074Z,25.09
2023-05-17T12:33:15.002Z,25.09
2023-05-17T12:34:30.239Z,25.07
2023-05-17T12:35:14.933Z,25.10
2023-05-17T12:36:14.913Z,25.09
2023-05-17T12:37:30.354Z,25.09
2023-05-17T12:39:34.090Z,25.06
2023-05-17T12:40:35.260Z,25.07
2023-05-17T12:41:34.108Z,25.05
2023-05-17T12:42:33.785Z,25.06
2023-05-17T12:43:33.893Z,25.05
2023-05-17T12:44:33.715Z,25.07
2023-05-17T12:45:33.685Z,25.05
2023-05-17T12:46:33.871Z,25.05
2023-05-17T12:49:16.915Z,25.03
2023-05-17T12:51:36.082Z,24.99
2023-05-17T12:54:15.862Z,24.99
2023-05-17T12:55:15.935Z,25.02
2023-05-17T12:56:15.890Z,25.00
2023-05-17T12:57:15.958Z,25.00
2023-05-17T12:58:15.883Z,25.02
2023-05-17T12:59:15.953Z,25.03
2023-05-17T13:00:15.759Z,25.00
2023-05-17T13:01:15.778Z,25.00
2023-05-17T13:02:15.950Z,25.00
2023-05-17T13:03:15.969Z,25.03
2023-05-17T13:04:16.164Z,25.02
2023-05-17T13:05:15.919Z,25.00
2023-05-17T13:06:15.937Z,25.00
2023-05-17T13:07:16.026Z,24.99
2023-05-17T13:08:15.996Z,25.00
2023-05-17T13:10:35.526Z,24.99
2023-05-17T13:11:35.679Z,25.00
2023-05-17T13:12:35.688Z,25.02
2023-05-17T13:13:35.492Z,24.96
2023-05-17T13:14:35.317Z,24.97
2023-05-17T13:15:35.215Z,25.00
2023-05-17T13:16:35.131Z,24.94
2023-05-17T13:17:35.104Z,24.99
2023-05-17T13:19:54.737Z,24.96
2023-05-17T13:20:54.506Z,24.96
2023-05-17T13:21:54.594Z,24.97
2023-05-17T13:22:54.172Z,24.97
2023-05-17T13:23:54.272Z,24.96
2023-05-17T13:24:54.080Z,24.94
2023-05-17T13:25:54.089Z,24.94
2023-05-17T13:26:54.099Z,24.96
2023-05-17T13:27:54.087Z,24.96
2023-05-17T13:28:54.078Z,24.94
2023-05-17T13:29:54.081Z,24.94
2023-05-17T13:30:54.038Z,24.94
2023-05-17T13:31:54.138Z,24.94
2023-05-17T13:32:54.046Z,24.96
2023-05-17T13:33:54.039Z,24.91
2023-05-17T13:34:54.009Z,24.94
2023-05-17T13:35:53.966Z,24.94
2023-05-17T13:38:13.351Z,24.89
2023-05-17T13:39:13.562Z,24.90
2023-05-17T13:40:13.412Z,24.87
2023-05-17T13:41:13.432Z,24.90
2023-05-17T13:42:13.419Z,24.90
2023-05-17T13:43:13.324Z,24.89
2023-05-17T13:44:13.184Z,24.90
2023-05-17T13:46:32.395Z,24.86
2023-05-17T13:47:32.653Z,24.87
2023-05-17T13:48:43.733Z,24.86
2023-05-17T13:49:32.372Z,24.87
2023-05-17T13:50:32.290Z,24.87
2023-05-17T13:51:32.155Z,24.89
2023-05-17T13:52:32.339Z,24.85
2023-05-17T13:53:32.178Z,24.86
2023-05-17T13:54:32.156Z,24.86